createdAt,value
2022-11-12T00:00:51.144Z,88.39
2022-11-12T00:03:18.000Z,88.42
2022-11-12T00:05:45.593Z,88.53
2022-11-12T00:08:12.547Z,88.88
2022-11-12T00:10:39.371Z,89.44
2022-11-12T00:13:05.917Z,89.17
2022-11-12T00:15:32.467Z,89.30
2022-11-12T00:17:59.379Z,89.27
2022-11-12T00:20:26.066Z,89.36
2022-11-12T00:22:52.619Z,89.62
2022-11-12T00:25:19.115Z,90.21
2022-11-12T00:27:45.691Z,89.92
2022-11-12T00:30:12.522Z,89.62
2022-11-12T00:32:39.135Z,89.16
2022-11-12T00:35:11.028Z,89.37
2022-11-12T00:37:40.089Z,89.32
2022-11-12T00:40:07.430Z,89.35
2022-11-12T00:42:33.933Z,89.48
2022-11-12T00:45:00.553Z,89.64
2022-11-12T00:47:27.051Z,89.87
2022-11-12T00:49:53.581Z,89.92
2022-11-12T00:52:20.103Z,89.17
2022-11-12T00:54:46.835Z,89.66
2022-11-12T00:57:13.340Z,89.59
2022-11-12T00:59:39.914Z,89.97
2022-11-12T01:02:06.406Z,90.26
2022-11-12T01:04:33.038Z,90.47
2022-11-12T01:06:59.666Z,90.93
2022-11-12T01:09:26.369Z,90.67
2022-11-12T01:11:52.866Z,90.92
2022-11-12T01:14:19.355Z,91.10
2022-11-12T01:16:47.011Z,90.98
2022-11-12T01:19:13.858Z,91.59
2022-11-12T01:21:42.946Z,91.69
2022-11-12T01:24:10.084Z,91.79
2022-11-12T01:26:37.401Z,91.09
2022-11-12T01:29:04.882Z,91.29
2022-11-12T01:31:34.454Z,91.12
2022-11-12T01:34:03.919Z,90.89
2022-11-12T01:36:39.298Z,90.92
2022-11-12T01:39:08.252Z,90.97
2022-11-12T01:41:37.347Z,91.07
2022-11-12T01:44:24.895Z,90.99
2022-11-12T01:47:00.393Z,90.94
2022-11-12T01:49:57.569Z,91.11
2022-11-12T01:52:45.229Z,90.95
2022-11-12T01:55:15.723Z,90.68
2022-11-12T01:57:48.684Z,90.44
2022-11-12T02:00:15.870Z,90.78
2022-11-12T02:02:46.413Z,91.07
2022-11-12T02:05:14.209Z,90.77
2022-11-12T02:07:44.287Z,90.97
2022-11-12T02:10:10.872Z,91.00
2022-11-12T02:12:56.850Z,90.84
2022-11-12T02:15:23.475Z,90.99
2022-11-12T02:17:50.114Z,90.28
2022-11-12T02:20:16.648Z,91.10
2022-11-12T02:22:43.167Z,91.11
2022-11-12T02:25:14.223Z,91.02
2022-11-12T02:27:40.805Z,90.98
2022-11-12T02:30:07.831Z,91.36
2022-11-12T02:32:34.357Z,91.47
2022-11-12T02:35:00.879Z,91.52
2022-11-12T02:37:27.400Z,91.22
2022-11-12T02:39:53.912Z,91.05
2022-11-12T02:42:20.416Z,91.17
2022-11-12T02:44:47.248Z,91.02
2022-11-12T02:47:13.751Z,90.95
2022-11-12T02:49:40.261Z,90.97
2022-11-12T02:52:08.866Z,91.14
2022-11-12T02:54:35.361Z,90.68
2022-11-12T02:57:01.863Z,90.61
2022-11-12T02:59:28.355Z,90.91
2022-11-12T03:01:54.904Z,90.89
2022-11-12T03:04:21.451Z,91.06
2022-11-12T03:06:48.138Z,90.98
2022-11-12T03:09:14.769Z,90.85
2022-11-12T03:11:41.263Z,90.97
2022-11-12T03:14:07.751Z,90.94
2022-11-12T03:16:34.234Z,91.04
2022-11-12T03:19:00.715Z,91.14
2022-11-12T03:21:27.236Z,91.07
2022-11-12T03:23:53.739Z,91.28
2022-11-12T03:26:20.234Z,91.22
2022-11-12T03:28:46.757Z,91.14
2022-11-12T03:31:13.626Z,91.24
2022-11-12T03:33:40.464Z,91.10
2022-11-12T03:36:07.548Z,91.14
2022-11-12T03:38:34.054Z,91.08
2022-11-12T03:41:00.781Z,91.24
2022-11-12T03:43:27.283Z,91.19
2022-11-12T03:45:53.798Z,91.35
2022-11-12T03:48:20.319Z,91.54
2022-11-12T03:50:46.799Z,91.18
2022-11-12T03:53:13.371Z,91.50
2022-11-12T03:55:39.987Z,91.61
2022-11-12T03:58:06.493Z,91.67
2022-11-12T04:00:33.067Z,91.24
2022-11-12T04:03:00.145Z,91.73
2022-11-12T04:05:46.077Z,91.59
2022-11-12T04:08:39.018Z,91.62
2022-11-12T04:11:13.103Z,91.41
2022-11-12T04:13:47.428Z,91.49
2022-11-12T04:16:38.184Z,91.10
2022-11-12T04:19:24.536Z,91.23
2022-11-12T04:21:58.258Z,91.20
2022-11-12T04:24:48.999Z,91.04
2022-11-12T04:27:26.522Z,91.16
2022-11-12T04:30:12.512Z,91.04
2022-11-12T04:33:01.302Z,91.17
2022-11-12T04:35:27.971Z,91.22
2022-11-12T04:37:55.193Z,91.39
2022-11-12T04:40:45.387Z,91.24
2022-11-12T04:43:33.315Z,91.39
2022-11-12T04:46:00.831Z,91.25
2022-11-12T04:48:27.731Z,91.26
2022-11-12T04:50:59.814Z,91.67
2022-11-12T04:53:27.547Z,91.17
2022-11-12T04:55:56.009Z,91.31
2022-11-12T04:58:23.267Z,91.49
2022-11-12T05:00:51.037Z,91.58
2022-11-12T05:03:18.551Z,91.78
2022-11-12T05:05:45.074Z,91.27
2022-11-12T05:08:11.578Z,91.63
2022-11-12T05:10:38.069Z,91.27
2022-11-12T05:13:04.579Z,91.61
2022-11-12T05:15:31.083Z,91.29
2022-11-12T05:17:57.842Z,91.59
2022-11-12T05:20:24.390Z,91.76
2022-11-12T05:23:05.531Z,91.94
2022-11-12T05:25:35.449Z,92.37
2022-11-12T05:28:01.944Z,92.05
2022-11-12T05:30:28.443Z,92.16
2022-11-12T05:32:54.949Z,92.16
2022-11-12T05:35:21.466Z,92.12
2022-11-12T05:37:47.946Z,92.61
2022-11-12T05:40:14.502Z,92.33
2022-11-12T05:42:40.998Z,92.66
2022-11-12T05:45:08.238Z,92.50
2022-11-12T05:47:34.764Z,92.19
2022-11-12T05:50:01.244Z,92.34
2022-11-12T05:52:27.721Z,92.44
2022-11-12T05:54:54.211Z,92.13
2022-11-12T05:57:20.695Z,91.92
2022-11-12T05:59:47.179Z,91.97
2022-11-12T06:02:13.752Z,92.34
2022-11-12T06:04:40.378Z,91.95
2022-11-12T06:07:06.909Z,91.48
2022-11-12T06:09:33.432Z,91.56
2022-11-12T06:12:02.470Z,91.55
2022-11-12T06:14:28.942Z,91.33
2022-11-12T06:16:55.457Z,91.64
2022-11-12T06:19:21.962Z,91.72
2022-11-12T06:21:49.876Z,91.18
2022-11-12T06:24:16.855Z,91.36
2022-11-12T06:26:43.362Z,91.40
2022-11-12T06:29:09.858Z,91.49
2022-11-12T06:31:36.335Z,91.67
2022-11-12T06:34:03.258Z,91.95
2022-11-12T06:36:29.908Z,92.37
2022-11-12T06:38:56.456Z,92.09
2022-11-12T06:41:22.975Z,92.32
2022-11-12T06:43:49.549Z,92.10
2022-11-12T06:46:17.499Z,91.80
2022-11-12T06:48:44.091Z,92.30
2022-11-12T06:51:21.219Z,92.19
2022-11-12T06:53:48.724Z,92.60
2022-11-12T06:56:16.188Z,92.41
2022-11-12T06:58:43.450Z,91.92
2022-11-12T07:01:13.461Z,92.17
2022-11-12T07:03:41.917Z,92.21
2022-11-12T07:06:13.387Z,92.24
2022-11-12T07:08:40.671Z,92.40
2022-11-12T07:11:07.815Z,92.26
2022-11-12T07:13:36.005Z,92.58
2022-11-12T07:16:04.841Z,92.57
2022-11-12T07:18:32.805Z,92.49
2022-11-12T07:21:01.074Z,93.24
2022-11-12T07:23:29.750Z,92.77
2022-11-12T07:26:02.045Z,92.29
2022-11-12T07:28:29.712Z,92.27
2022-11-12T07:31:02.142Z,92.56
2022-11-12T07:33:30.191Z,92.74
2022-11-12T07:36:04.493Z,92.86
2022-11-12T07:38:32.475Z,92.87
2022-11-12T07:41:07.626Z,92.97
2022-11-12T07:43:36.117Z,93.03
2022-11-12T07:46:10.361Z,92.55
2022-11-12T07:48:38.211Z,93.17
2022-11-12T07:51:25.598Z,93.80
2022-11-12T07:53:58.928Z,93.69
2022-11-12T07:56:27.680Z,93.56
2022-11-12T07:58:54.354Z,93.41
2022-11-12T08:01:31.911Z,93.76
2022-11-12T08:04:03.466Z,93.64
2022-11-12T08:06:31.649Z,93.46
2022-11-12T08:09:02.595Z,93.44
2022-11-12T08:11:29.274Z,93.72
2022-11-12T08:13:55.806Z,93.42
2022-11-12T08:16:22.558Z,93.20
2022-11-12T08:18:49.408Z,92.78
2022-11-12T08:21:17.301Z,92.97
2022-11-12T08:23:44.249Z,92.92
2022-11-12T08:26:17.061Z,92.80
2022-11-12T08:28:43.723Z,92.72
2022-11-12T08:31:12.942Z,92.72
2022-11-12T08:33:40.025Z,92.29
2022-11-12T08:36:10.010Z,92.27
2022-11-12T08:38:37.202Z,92.10
2022-11-12T08:41:12.089Z,92.28
2022-11-12T08:43:39.961Z,91.77
2022-11-12T08:46:06.520Z,90.91
2022-11-12T08:48:34.494Z,90.87
2022-11-12T08:51:03.288Z,90.10
2022-11-12T08:53:30.042Z,89.70
2022-11-12T08:55:57.114Z,87.54
2022-11-12T08:58:25.127Z,87.13
2022-11-12T09:00:52.323Z,86.44
2022-11-12T09:03:22.028Z,86.47
2022-11-12T09:05:49.370Z,86.06
2022-11-12T09:08:22.389Z,86.01
2022-11-12T09:10:49.773Z,84.59
2022-11-12T09:13:18.357Z,84.65
2022-11-12T09:15:45.940Z,83.22
2022-11-12T09:18:18.099Z,82.12
2022-11-12T09:20:46.136Z,82.69
2022-11-12T09:23:17.891Z,82.51
2022-11-12T09:25:45.072Z,82.27
2022-11-12T09:28:13.123Z,82.29
2022-11-12T09:30:43.942Z,81.23
2022-11-12T09:33:10.435Z,81.30
2022-11-12T09:35:36.928Z,82.07
2022-11-12T09:38:03.417Z,81.26
2022-11-12T09:40:53.126Z,80.99
2022-11-12T09:43:32.682Z,80.21
2022-11-12T09:46:26.763Z,80.30
2022-11-12T09:49:01.893Z,80.35
2022-11-12T09:51:32.316Z,79.99
2022-11-12T09:54:04.366Z,80.50
2022-11-12T09:56:31.109Z,80.82
2022-11-12T09:58:57.726Z,80.16
2022-11-12T10:01:48.284Z,79.08
2022-11-12T10:04:20.962Z,79.65
2022-11-12T10:06:59.700Z,79.40
2022-11-12T10:09:40.376Z,78.33
2022-11-12T10:12:33.890Z,78.38
2022-11-12T10:15:57.718Z,78.92
2022-11-12T10:18:38.955Z,78.00
2022-11-12T10:21:36.618Z,78.52
2022-11-12T10:24:07.825Z,77.54
2022-11-12T10:26:35.046Z,77.21
2022-11-12T10:29:07.930Z,76.37
2022-11-12T10:31:34.403Z,74.62
2022-11-12T10:34:21.444Z,76.15
2022-11-12T10:37:00.289Z,77.40
2022-11-12T10:39:32.950Z,75.94
2022-11-12T10:42:16.644Z,76.02
2022-11-12T10:44:44.231Z,76.09
2022-11-12T10:47:21.659Z,76.59
2022-11-12T10:50:10.289Z,75.92
2022-11-12T10:52:37.275Z,75.80
2022-11-12T10:55:28.270Z,76.44
2022-11-12T10:58:16.605Z,75.76
2022-11-12T11:01:03.256Z,75.96
2022-11-12T11:03:44.751Z,75.77
2022-11-12T11:06:14.358Z,75.01
2022-11-12T11:08:42.471Z,75.25
2022-11-12T11:11:28.806Z,75.37
2022-11-12T11:13:57.846Z,74.18
2022-11-12T11:16:27.460Z,73.47
2022-11-12T11:19:00.181Z,74.03
2022-11-12T11:21:48.269Z,74.32
2022-11-12T11:24:35.674Z,73.16
2022-11-12T11:27:35.572Z,72.87
2022-11-12T11:30:18.486Z,73.12
2022-11-12T11:32:51.150Z,73.97
2022-11-12T11:35:17.604Z,74.59
2022-11-12T11:37:58.646Z,73.59
2022-11-12T11:40:33.461Z,72.39
2022-11-12T11:43:11.748Z,71.82
2022-11-12T11:46:10.038Z,72.02
2022-11-12T11:48:48.750Z,72.74
2022-11-12T11:51:25.926Z,72.53
2022-11-12T11:54:20.714Z,72.81
2022-11-12T11:56:55.870Z,72.28
2022-11-12T11:59:37.447Z,72.84
2022-11-12T12:02:22.596Z,72.84
2022-11-12T12:05:06.615Z,73.22
2022-11-12T12:07:54.189Z,73.05
2022-11-12T12:10:40.211Z,71.74
2022-11-12T12:13:44.134Z,71.64
2022-11-12T12:16:31.306Z,71.81
2022-11-12T12:19:31.971Z,71.59
2022-11-12T12:22:01.449Z,72.34
2022-11-12T12:24:50.343Z,71.71
2022-11-12T12:27:41.424Z,72.42
2022-11-12T12:30:27.678Z,72.42
2022-11-12T12:32:57.566Z,72.05
2022-11-12T12:35:30.823Z,72.24
2022-11-12T12:38:45.616Z,72.03
2022-11-12T12:41:35.368Z,72.46
2022-11-12T12:44:06.957Z,72.63
2022-11-12T12:46:40.637Z,72.52
2022-11-12T12:49:10.962Z,72.92
2022-11-12T12:51:37.464Z,73.10
2022-11-12T12:54:05.147Z,72.19
2022-11-12T12:56:31.628Z,72.74
2022-11-12T12:59:03.614Z,72.99
2022-11-12T13:01:34.227Z,73.02
2022-11-12T13:04:08.832Z,73.49
2022-11-12T13:06:51.848Z,74.12
2022-11-12T13:09:18.306Z,73.49
2022-11-12T13:12:03.502Z,73.15
2022-11-12T13:14:36.434Z,74.51
2022-11-12T13:17:09.155Z,74.51
2022-11-12T13:19:36.906Z,74.86
2022-11-12T13:22:18.718Z,74.96
2022-11-12T13:25:16.974Z,74.99
2022-11-12T13:27:43.429Z,75.24
2022-11-12T13:30:13.043Z,75.40
2022-11-12T13:32:42.556Z,75.57
2022-11-12T13:35:12.092Z,75.74
2022-11-12T13:37:56.199Z,75.90
2022-11-12T13:40:33.617Z,76.01
2022-11-12T13:43:15.867Z,76.19
2022-11-12T13:45:51.300Z,76.15
2022-11-12T13:48:30.890Z,76.27
2022-11-12T13:51:01.467Z,76.40
2022-11-12T13:53:31.029Z,76.30
2022-11-12T13:55:57.631Z,76.62
2022-11-12T13:58:33.070Z,76.62
2022-11-12T14:01:05.125Z,76.84
2022-11-12T14:03:41.966Z,77.10
2022-11-12T14:06:16.751Z,77.22
2022-11-12T14:08:57.251Z,77.67
2022-11-12T14:11:51.082Z,77.64
2022-11-12T14:14:26.658Z,77.87
2022-11-12T14:17:26.887Z,78.24
2022-11-12T14:20:08.670Z,78.45
2022-11-12T14:22:45.513Z,78.67
2022-11-12T14:25:19.184Z,79.19
2022-11-12T14:27:47.566Z,79.69
2022-11-12T14:30:23.397Z,79.77
2022-11-12T14:32:58.933Z,79.97
2022-11-12T14:35:25.386Z,80.19
2022-11-12T14:37:55.988Z,80.62
2022-11-12T14:40:25.010Z,80.55
2022-11-12T14:42:52.906Z,80.62
2022-11-12T14:45:22.016Z,80.95
2022-11-12T14:47:50.941Z,81.02
2022-11-12T14:50:37.366Z,81.12
2022-11-12T14:53:24.669Z,81.94
2022-11-12T14:55:53.889Z,82.34
2022-11-12T14:58:22.880Z,82.37
2022-11-12T15:00:52.370Z,82.95
2022-11-12T15:03:24.687Z,83.09
2022-11-12T15:06:03.461Z,84.08
2022-11-12T15:08:35.414Z,84.12
2022-11-12T15:11:21.897Z,84.16
2022-11-12T15:13:50.626Z,84.17
2022-11-12T15:16:29.551Z,84.19
2022-11-12T15:19:03.495Z,83.97
2022-11-12T15:21:30.239Z,84.12
2022-11-12T15:24:11.754Z,84.29
2022-11-12T15:26:45.130Z,84.48
2022-11-12T15:29:11.609Z,84.86
2022-11-12T15:31:47.311Z,85.27
2022-11-12T15:34:33.818Z,85.38
2022-11-12T15:37:05.804Z,85.80
2022-11-12T15:39:40.142Z,85.92
2022-11-12T15:42:16.561Z,85.86
2022-11-12T15:44:44.270Z,86.72
2022-11-12T15:47:29.410Z,87.80
2022-11-12T15:50:01.396Z,88.33
2022-11-12T15:52:28.010Z,88.71
2022-11-12T15:54:54.730Z,89.18
2022-11-12T15:57:28.402Z,89.69
2022-11-12T16:00:07.553Z,89.30
2022-11-12T16:02:35.017Z,89.60
2022-11-12T16:05:01.799Z,90.13
2022-11-12T16:07:28.286Z,90.42
2022-11-12T16:09:54.880Z,91.00
2022-11-12T16:12:21.667Z,91.35
2022-11-12T16:14:48.265Z,90.79
2022-11-12T16:17:17.642Z,90.32
2022-11-12T16:19:44.211Z,90.92
2022-11-12T16:22:13.731Z,90.85
2022-11-12T16:24:41.449Z,90.33
2022-11-12T16:27:18.092Z,90.92
2022-11-12T16:29:44.600Z,91.64
2022-11-12T16:32:14.013Z,91.67
2022-11-12T16:34:40.701Z,91.89
2022-11-12T16:37:11.841Z,90.92
2022-11-12T16:39:38.420Z,90.67
2022-11-12T16:42:05.060Z,91.69
2022-11-12T16:44:31.533Z,91.93
2022-11-12T16:46:58.042Z,90.95
2022-11-12T16:49:26.083Z,91.04
2022-11-12T16:51:52.562Z,91.09
2022-11-12T16:54:19.616Z,91.11
2022-11-12T16:56:46.183Z,91.37
2022-11-12T16:59:14.629Z,90.98
2022-11-12T17:01:41.226Z,91.17
2022-11-12T17:04:08.837Z,90.77
2022-11-12T17:06:40.850Z,90.59
2022-11-12T17:09:10.156Z,90.52
2022-11-12T17:11:37.115Z,90.69
2022-11-12T17:14:05.735Z,91.24
2022-11-12T17:16:32.580Z,91.23
2022-11-12T17:19:01.643Z,90.42
2022-11-12T17:21:28.607Z,90.37
2022-11-12T17:23:56.977Z,90.46
2022-11-12T17:26:23.806Z,90.34
2022-11-12T17:28:54.024Z,90.97
2022-11-12T17:31:26.298Z,90.95
2022-11-12T17:33:53.731Z,91.12
2022-11-12T17:36:22.916Z,90.69
2022-11-12T17:38:54.044Z,90.57
2022-11-12T17:41:20.571Z,90.74
2022-11-12T17:43:47.379Z,90.51
2022-11-12T17:46:15.030Z,90.18
2022-11-12T17:48:41.781Z,90.52
2022-11-12T17:51:11.328Z,90.03
2022-11-12T17:53:38.857Z,90.46
2022-11-12T17:56:07.309Z,90.38
2022-11-12T17:58:33.964Z,90.17
2022-11-12T18:01:16.492Z,90.27
2022-11-12T18:03:45.187Z,90.34
2022-11-12T18:06:16.565Z,90.74
2022-11-12T18:08:43.912Z,90.35
2022-11-12T18:11:12.506Z,90.64
2022-11-12T18:13:42.263Z,90.30
2022-11-12T18:16:21.071Z,90.57
2022-11-12T18:18:48.212Z,90.29
2022-11-12T18:21:15.266Z,90.43
2022-11-12T18:23:47.954Z,90.60
2022-11-12T18:26:18.154Z,90.82
2022-11-12T18:28:50.200Z,90.74
2022-11-12T18:31:20.415Z,90.94
2022-11-12T18:33:48.121Z,90.86
2022-11-12T18:36:21.037Z,90.88
2022-11-12T18:42:32.519Z,90.66
2022-11-12T18:44:59.026Z,90.73
2022-11-12T18:47:25.512Z,90.96
2022-11-12T18:49:52.052Z,91.03
2022-11-12T18:52:19.603Z,91.48
2022-11-12T18:54:46.099Z,91.72
2022-11-12T18:57:12.620Z,91.61
2022-11-12T18:59:49.678Z,91.32
2022-11-12T19:02:16.993Z,91.02
2022-11-12T19:04:50.846Z,91.32
2022-11-12T19:07:25.524Z,91.32
2022-11-12T19:10:02.965Z,92.12
2022-11-12T19:12:39.639Z,92.11
2022-11-12T19:15:09.177Z,92.12
2022-11-12T19:17:52.809Z,92.10
2022-11-12T19:20:19.380Z,91.89
2022-11-12T19:22:45.985Z,91.90
2022-11-12T19:25:19.383Z,91.93
2022-11-12T19:27:46.201Z,91.95
2022-11-12T19:30:13.278Z,92.02
2022-11-12T19:32:40.835Z,91.76
2022-11-12T19:35:07.962Z,91.51
2022-11-12T19:37:34.866Z,91.72
2022-11-12T19:40:01.600Z,91.74
2022-11-12T19:42:28.293Z,91.92
2022-11-12T19:44:54.786Z,91.87
2022-11-12T19:47:21.471Z,92.17
2022-11-12T19:49:47.985Z,92.46
2022-11-12T19:52:14.468Z,92.29
2022-11-12T19:54:40.934Z,92.54
2022-11-12T19:57:10.854Z,92.59
2022-11-12T19:59:39.895Z,92.62
2022-11-12T20:02:11.415Z,91.90
2022-11-12T20:04:37.992Z,91.76
2022-11-12T20:07:04.739Z,91.84
2022-11-12T20:09:32.088Z,91.98
2022-11-12T20:11:58.561Z,91.81
2022-11-12T20:14:25.128Z,91.73
2022-11-12T20:16:51.716Z,92.22
2022-11-12T20:19:18.333Z,91.77
2022-11-12T20:21:44.882Z,92.19
2022-11-12T20:24:22.090Z,92.42
2022-11-12T20:26:48.625Z,92.04
2022-11-12T20:29:15.182Z,91.73
2022-11-12T20:31:42.293Z,92.11
2022-11-12T20:34:10.767Z,92.51
2022-11-12T20:36:38.604Z,93.14
2022-11-12T20:39:05.165Z,92.65
2022-11-12T20:41:31.986Z,93.21
2022-11-12T20:44:00.435Z,93.30
2022-11-12T20:46:27.823Z,93.64
2022-11-12T20:48:54.895Z,93.73
2022-11-12T20:51:26.192Z,93.72
2022-11-12T20:53:58.880Z,93.96
2022-11-12T20:56:29.019Z,94.04
2022-11-12T20:58:56.137Z,94.29
2022-11-12T21:01:25.176Z,94.05
2022-11-12T21:03:52.108Z,93.86
2022-11-12T21:06:21.468Z,93.74
2022-11-12T21:08:52.535Z,94.13
2022-11-12T21:11:21.790Z,94.14
2022-11-12T21:13:53.415Z,94.41
2022-11-12T21:16:20.006Z,93.86
2022-11-12T21:18:46.648Z,93.29
2022-11-12T21:21:15.741Z,93.21
2022-11-12T21:23:44.067Z,93.12
2022-11-12T21:26:15.017Z,92.80
2022-11-12T21:28:46.911Z,92.82
2022-11-12T21:31:35.543Z,92.74
2022-11-12T21:34:04.559Z,92.88
2022-11-12T21:36:32.562Z,93.06
2022-11-12T21:38:59.210Z,92.80
2022-11-12T21:41:27.538Z,92.87
2022-11-12T21:43:54.495Z,92.44
2022-11-12T21:46:29.529Z,92.40
2022-11-12T21:48:56.840Z,92.37
2022-11-12T21:51:26.152Z,92.48
2022-11-12T21:54:00.780Z,92.62
2022-11-12T21:56:28.515Z,92.92
2022-11-12T21:59:00.460Z,92.77
2022-11-12T22:01:29.491Z,93.08
2022-11-12T22:03:57.831Z,92.66
2022-11-12T22:06:29.689Z,92.82
2022-11-12T22:08:57.444Z,92.74
2022-11-12T22:11:25.366Z,92.87
2022-11-12T22:13:51.911Z,92.62
2022-11-12T22:16:24.721Z,92.67
2022-11-12T22:18:53.607Z,92.68
2022-11-12T22:21:39.537Z,91.64
2022-11-12T22:24:07.127Z,91.84
2022-11-12T22:26:33.671Z,92.08
2022-11-12T22:29:00.507Z,92.36
2022-11-12T22:31:29.792Z,92.49
2022-11-12T22:33:58.287Z,92.30
2022-11-12T22:36:27.058Z,91.77
2022-11-12T22:38:54.890Z,91.99
2022-11-12T22:41:27.049Z,91.92
2022-11-12T22:44:01.352Z,92.14
2022-11-12T22:46:30.800Z,91.61
2022-11-12T22:48:57.484Z,91.79
2022-11-12T22:51:26.453Z,91.49
2022-11-12T22:53:54.748Z,91.68
2022-11-12T22:56:21.733Z,91.57
2022-11-12T22:58:48.505Z,91.37
2022-11-12T23:01:24.499Z,91.67
2022-11-12T23:03:52.556Z,91.57
2022-11-12T23:06:19.234Z,91.96
2022-11-12T23:08:45.941Z,91.94
2022-11-12T23:11:15.691Z,91.74
2022-11-12T23:13:42.454Z,91.79
2022-11-12T23:16:15.330Z,91.65
2022-11-12T23:18:42.603Z,91.22
2022-11-12T23:21:12.155Z,91.54
2022-11-12T23:23:38.779Z,91.64
2022-11-12T23:26:14.687Z,91.89
2022-11-12T23:28:41.410Z,91.64
2022-11-12T23:31:16.141Z,92.17
2022-11-12T23:33:47.026Z,92.26
2022-11-12T23:36:13.770Z,92.12
2022-11-12T23:38:40.854Z,92.50
2022-11-12T23:41:08.015Z,91.52
2022-11-12T23:43:34.568Z,91.23
2022-11-12T23:46:01.128Z,91.54
2022-11-12T23:48:28.181Z,91.27
2022-11-12T23:51:06.919Z,90.82
2022-11-12T23:53:34.777Z,91.28
2022-11-12T23:56:01.919Z,91.22
2022-11-12T23:58:29.081Z,91.52
